WZZ54P EGPH-EPWA
Flight info
| Callsign | WZZ54P |
|---|---|
| Flight time | 2h 33m |
| Altitude | 35000 |
| Route | GRICE3C GRICE P600 ASNUD DCT UPGET DCT RIVOT DCT REKNA DCT PETIL DCT ASMUS DCT DOSUR DCT SUBIX L980 ADVAB P150 BIMPA BIMPA6U |
| Aircraft | A320/M-VGDW/C |
Departure
| Time | 2026-05-07 18:41 |
|---|---|
| Airport | Edinburgh Airport (EGPH) |
Arrival
| Time | 2026-05-07 21:14 |
|---|---|
| Airport | Warsaw Chopin Airport (EPWA) |
| Time | Latitude | Longitude | Altitude | Speed | Heading |
|---|---|---|---|---|---|
| 2026-05-07 17:50 | 55.94939 | -3.36355 | 109 ft | 0 kts | 148° |
| 2026-05-07 18:33 | 55.94942 | -3.36358 | 108 ft | 0 kts | 148° |
| 2026-05-07 18:33 | 55.94950 | -3.36368 | 108 ft | 2 kts | 148° |
| 2026-05-07 18:34 | 55.94964 | -3.36383 | 107 ft | 2 kts | 148° |
| 2026-05-07 18:34 | 55.94978 | -3.36399 | 108 ft | 2 kts | 130° |
| 2026-05-07 18:34 | 55.94986 | -3.36424 | 108 ft | 2 kts | 96° |
| 2026-05-07 18:34 | 55.94986 | -3.36451 | 109 ft | 0 kts | 65° |
| 2026-05-07 18:36 | 55.94991 | -3.36437 | 109 ft | 3 kts | 57° |
| 2026-05-07 18:36 | 55.95015 | -3.36400 | 110 ft | 9 kts | 32° |
| 2026-05-07 18:37 | 55.95072 | -3.36397 | 111 ft | 8 kts | 357° |
| 2026-05-07 18:37 | 55.95119 | -3.36329 | 110 ft | 11 kts | 54° |
| 2026-05-07 18:37 | 55.95162 | -3.36202 | 108 ft | 13 kts | 61° |
| 2026-05-07 18:37 | 55.95212 | -3.36048 | 106 ft | 16 kts | 59° |
| 2026-05-07 18:38 | 55.95272 | -3.35871 | 107 ft | 17 kts | 59° |
| 2026-05-07 18:38 | 55.95332 | -3.35691 | 108 ft | 17 kts | 59° |
| 2026-05-07 18:38 | 55.95389 | -3.35523 | 110 ft | 15 kts | 59° |
| 2026-05-07 18:38 | 55.95441 | -3.35408 | 109 ft | 13 kts | 28° |
| 2026-05-07 18:39 | 55.95495 | -3.35435 | 108 ft | 0 kts | 330° |
| 2026-05-07 18:39 | 55.95506 | -3.35446 | 106 ft | 3 kts | 330° |
| 2026-05-07 18:40 | 55.95539 | -3.35483 | 108 ft | 10 kts | 328° |
| 2026-05-07 18:40 | 55.95558 | -3.35594 | 108 ft | 11 kts | 252° |
| 2026-05-07 18:40 | 55.95516 | -3.35725 | 110 ft | 19 kts | 239° |
| 2026-05-07 18:40 | 55.95386 | -3.36106 | 106 ft | 60 kts | 238° |
| 2026-05-07 18:41 | 55.95065 | -3.37050 | 112 ft | 115 kts | 238° |
| 2026-05-07 18:41 | 55.94585 | -3.38498 | 143 ft | 153 kts | 240° |
| 2026-05-07 18:41 | 55.94002 | -3.40173 | 575 ft | 162 kts | 241° |
| 2026-05-07 18:41 | 55.93433 | -3.41945 | 1098 ft | 166 kts | 242° |
| 2026-05-07 18:42 | 55.92873 | -3.43761 | 1609 ft | 166 kts | 236° |
| 2026-05-07 18:42 | 55.92233 | -3.45590 | 1777 ft | 181 kts | 234° |
| 2026-05-07 18:42 | 55.91524 | -3.47559 | 1919 ft | 196 kts | 233° |
| 2026-05-07 18:42 | 55.90756 | -3.49695 | 2057 ft | 214 kts | 235° |
| 2026-05-07 18:43 | 55.90109 | -3.52181 | 2194 ft | 236 kts | 257° |
| 2026-05-07 18:43 | 55.90305 | -3.55179 | 2515 ft | 256 kts | 291° |
| 2026-05-07 18:43 | 55.91487 | -3.57608 | 3056 ft | 268 kts | 326° |
| 2026-05-07 18:43 | 55.93309 | -3.58462 | 3575 ft | 278 kts | 2° |
| 2026-05-07 18:44 | 55.95162 | -3.57420 | 4061 ft | 283 kts | 27° |
| 2026-05-07 18:44 | 55.96831 | -3.55530 | 4524 ft | 286 kts | 36° |
| 2026-05-07 18:44 | 55.98431 | -3.53386 | 5028 ft | 287 kts | 36° |
| 2026-05-07 18:44 | 56.00180 | -3.51820 | 5472 ft | 286 kts | 11° |
| 2026-05-07 18:45 | 56.02137 | -3.51745 | 5902 ft | 281 kts | 343° |
| 2026-05-07 18:45 | 56.04027 | -3.52615 | 6351 ft | 282 kts | 342° |
| 2026-05-07 18:45 | 56.05821 | -3.53938 | 6761 ft | 277 kts | 322° |
| 2026-05-07 18:45 | 56.07167 | -3.56326 | 7163 ft | 271 kts | 299° |
| 2026-05-07 18:46 | 56.08164 | -3.59201 | 7579 ft | 271 kts | 297° |
| 2026-05-07 18:46 | 56.09322 | -3.61912 | 7986 ft | 278 kts | 311° |
| 2026-05-07 18:46 | 56.10879 | -3.64032 | 8392 ft | 285 kts | 327° |
| 2026-05-07 18:46 | 56.12711 | -3.65376 | 8896 ft | 292 kts | 342° |
| 2026-05-07 18:47 | 56.14697 | -3.66255 | 9661 ft | 295 kts | 342° |
| 2026-05-07 18:47 | 56.16723 | -3.67132 | 10168 ft | 307 kts | 347° |
| 2026-05-07 18:47 | 56.18946 | -3.66955 | 10324 ft | 335 kts | 12° |
| 2026-05-07 18:47 | 56.21211 | -3.65467 | 10453 ft | 358 kts | 24° |
| 2026-05-07 18:48 | 56.23466 | -3.63275 | 10580 ft | 378 kts | 31° |
| 2026-05-07 18:48 | 56.25662 | -3.60618 | 10833 ft | 392 kts | 35° |
| 2026-05-07 18:48 | 56.27921 | -3.57764 | 11324 ft | 397 kts | 34° |
| 2026-05-07 18:48 | 56.30206 | -3.54906 | 11881 ft | 401 kts | 34° |
| 2026-05-07 18:49 | 56.32507 | -3.52009 | 12426 ft | 405 kts | 34° |
| 2026-05-07 18:49 | 56.34822 | -3.49066 | 12957 ft | 409 kts | 35° |
| 2026-05-07 18:49 | 56.37166 | -3.46064 | 13483 ft | 413 kts | 35° |
| 2026-05-07 18:49 | 56.39490 | -3.43062 | 13985 ft | 417 kts | 35° |
| 2026-05-07 18:50 | 56.41862 | -3.39982 | 14470 ft | 421 kts | 36° |
| 2026-05-07 18:50 | 56.44245 | -3.36875 | 14945 ft | 424 kts | 36° |
| 2026-05-07 18:50 | 56.46663 | -3.33770 | 15420 ft | 427 kts | 34° |
| 2026-05-07 18:50 | 56.49112 | -3.30715 | 15889 ft | 430 kts | 34° |
| 2026-05-07 18:51 | 56.51606 | -3.27660 | 16359 ft | 433 kts | 34° |
| 2026-05-07 18:51 | 56.54098 | -3.24624 | 16824 ft | 437 kts | 34° |
| 2026-05-07 18:51 | 56.56629 | -3.21525 | 17280 ft | 440 kts | 34° |
| 2026-05-07 18:51 | 56.59173 | -3.18383 | 17738 ft | 444 kts | 34° |
| 2026-05-07 18:52 | 56.61738 | -3.15194 | 18217 ft | 446 kts | 36° |
| 2026-05-07 18:52 | 56.64117 | -3.11563 | 18616 ft | 448 kts | 47° |
| 2026-05-07 18:52 | 56.66075 | -3.07143 | 19036 ft | 448 kts | 59° |
| 2026-05-07 18:52 | 56.67559 | -3.02150 | 19450 ft | 448 kts | 70° |
| 2026-05-07 18:53 | 56.68526 | -2.96786 | 19863 ft | 446 kts | 81° |
| 2026-05-07 18:53 | 56.68936 | -2.91209 | 20279 ft | 443 kts | 92° |
| 2026-05-07 18:53 | 56.68844 | -2.85617 | 20664 ft | 442 kts | 97° |
| 2026-05-07 18:53 | 56.68670 | -2.80087 | 21050 ft | 444 kts | 97° |
| 2026-05-07 18:54 | 56.68486 | -2.74445 | 21433 ft | 446 kts | 97° |
| 2026-05-07 18:54 | 56.68301 | -2.68793 | 21798 ft | 448 kts | 97° |
| 2026-05-07 18:54 | 56.68116 | -2.63091 | 22156 ft | 450 kts | 97° |
| 2026-05-07 18:54 | 56.67930 | -2.57379 | 22505 ft | 453 kts | 97° |
| 2026-05-07 18:55 | 56.67741 | -2.51645 | 22846 ft | 455 kts | 97° |
| 2026-05-07 18:55 | 56.67553 | -2.45960 | 23195 ft | 457 kts | 97° |
| 2026-05-07 18:55 | 56.67359 | -2.40166 | 23522 ft | 459 kts | 97° |
| 2026-05-07 18:55 | 56.67160 | -2.34324 | 23822 ft | 461 kts | 97° |
| 2026-05-07 18:56 | 56.66960 | -2.28510 | 24233 ft | 459 kts | 97° |
| 2026-05-07 18:56 | 56.66758 | -2.22719 | 24650 ft | 458 kts | 97° |
| 2026-05-07 18:56 | 56.66557 | -2.17001 | 25061 ft | 457 kts | 97° |
| 2026-05-07 18:56 | 56.66352 | -2.11219 | 25487 ft | 456 kts | 98° |
| 2026-05-07 18:57 | 56.66140 | -2.05481 | 25903 ft | 455 kts | 98° |
| 2026-05-07 18:57 | 56.65895 | -1.99751 | 26337 ft | 453 kts | 99° |
| 2026-05-07 18:57 | 56.65543 | -1.94053 | 26769 ft | 451 kts | 102° |
| 2026-05-07 18:57 | 56.65107 | -1.88471 | 27196 ft | 450 kts | 103° |
| 2026-05-07 18:58 | 56.64615 | -1.82871 | 27645 ft | 448 kts | 103° |
| 2026-05-07 18:58 | 56.64108 | -1.77285 | 28099 ft | 447 kts | 103° |
| 2026-05-07 18:58 | 56.63614 | -1.71710 | 28552 ft | 446 kts | 103° |
| 2026-05-07 18:58 | 56.63139 | -1.66131 | 28990 ft | 445 kts | 103° |
| 2026-05-07 18:59 | 56.62681 | -1.60571 | 29449 ft | 444 kts | 103° |
| 2026-05-07 18:59 | 56.62234 | -1.55067 | 29887 ft | 443 kts | 102° |
| 2026-05-07 18:59 | 56.61786 | -1.49534 | 30308 ft | 442 kts | 102° |
| 2026-05-07 18:59 | 56.61338 | -1.44017 | 30713 ft | 440 kts | 103° |
| 2026-05-07 19:00 | 56.60886 | -1.38526 | 31113 ft | 438 kts | 103° |
| 2026-05-07 19:00 | 56.60428 | -1.33035 | 31522 ft | 437 kts | 103° |
| 2026-05-07 19:00 | 56.59967 | -1.27589 | 31926 ft | 436 kts | 103° |
| 2026-05-07 19:00 | 56.59506 | -1.22166 | 32330 ft | 434 kts | 103° |
| 2026-05-07 19:01 | 56.59046 | -1.16814 | 32734 ft | 433 kts | 103° |
| 2026-05-07 19:01 | 56.58574 | -1.11358 | 33152 ft | 431 kts | 104° |
| 2026-05-07 19:01 | 56.58118 | -1.06071 | 33551 ft | 430 kts | 104° |
| 2026-05-07 19:01 | 56.57653 | -1.00711 | 33948 ft | 428 kts | 104° |
| 2026-05-07 19:02 | 56.57187 | -0.95386 | 34260 ft | 427 kts | 104° |
| 2026-05-07 19:02 | 56.56720 | -0.90067 | 34515 ft | 427 kts | 103° |
| 2026-05-07 19:02 | 56.56251 | -0.84729 | 34762 ft | 427 kts | 103° |
| 2026-05-07 19:02 | 56.55781 | -0.79398 | 34952 ft | 429 kts | 103° |
| 2026-05-07 19:03 | 56.55306 | -0.74024 | 35006 ft | 433 kts | 103° |
| 2026-05-07 19:03 | 56.54326 | -0.63141 | 35013 ft | 446 kts | 103° |
| 2026-05-07 19:04 | 56.53310 | -0.51944 | 35012 ft | 451 kts | 103° |
| 2026-05-07 19:04 | 56.52299 | -0.40785 | 35017 ft | 451 kts | 103° |
| 2026-05-07 19:05 | 56.51265 | -0.29555 | 35020 ft | 451 kts | 103° |
| 2026-05-07 19:05 | 56.50213 | -0.18333 | 35028 ft | 451 kts | 103° |
| 2026-05-07 19:06 | 56.49151 | -0.07109 | 35029 ft | 452 kts | 103° |
| 2026-05-07 19:06 | 56.47556 | 0.09657 | 35033 ft | 452 kts | 103° |
| 2026-05-07 19:07 | 56.46470 | 0.20869 | 35036 ft | 451 kts | 103° |
| 2026-05-07 19:07 | 56.45378 | 0.32006 | 35045 ft | 451 kts | 103° |
| 2026-05-07 19:08 | 56.44282 | 0.43208 | 35046 ft | 451 kts | 103° |
| 2026-05-07 19:08 | 56.43169 | 0.54382 | 35050 ft | 451 kts | 103° |
| 2026-05-07 19:09 | 56.42044 | 0.65495 | 35051 ft | 451 kts | 103° |
| 2026-05-07 19:09 | 56.40908 | 0.76645 | 35058 ft | 451 kts | 103° |
| 2026-05-07 19:10 | 56.39905 | 0.87863 | 35058 ft | 452 kts | 101° |
| 2026-05-07 19:10 | 56.39124 | 0.99185 | 35058 ft | 453 kts | 99° |
| 2026-05-07 19:11 | 56.38341 | 1.10461 | 35065 ft | 452 kts | 100° |
| 2026-05-07 19:11 | 56.37485 | 1.21640 | 35067 ft | 452 kts | 101° |
| 2026-05-07 19:12 | 56.36587 | 1.32891 | 35077 ft | 452 kts | 101° |
| 2026-05-07 19:12 | 56.35685 | 1.44120 | 35077 ft | 452 kts | 101° |
| 2026-05-07 19:13 | 56.34786 | 1.55378 | 35080 ft | 452 kts | 101° |
| 2026-05-07 19:13 | 56.33885 | 1.66520 | 35086 ft | 452 kts | 101° |
| 2026-05-07 19:14 | 56.32958 | 1.77766 | 35079 ft | 452 kts | 101° |
| 2026-05-07 19:14 | 56.32180 | 1.87095 | 35089 ft | 452 kts | 101° |
| 2026-05-07 19:15 | 56.31243 | 1.98305 | 35089 ft | 452 kts | 101° |
| 2026-05-07 19:15 | 56.30301 | 2.09454 | 35095 ft | 452 kts | 101° |
| 2026-05-07 19:16 | 56.29338 | 2.20653 | 35090 ft | 452 kts | 101° |
| 2026-05-07 19:16 | 56.28367 | 2.31852 | 35093 ft | 452 kts | 101° |
| 2026-05-07 19:17 | 56.27391 | 2.43048 | 35102 ft | 452 kts | 101° |
| 2026-05-07 19:17 | 56.26401 | 2.54242 | 35095 ft | 452 kts | 101° |
| 2026-05-07 19:18 | 56.25396 | 2.65414 | 35106 ft | 452 kts | 101° |
| 2026-05-07 19:18 | 56.24384 | 2.76521 | 35108 ft | 452 kts | 101° |
| 2026-05-07 19:19 | 56.23367 | 2.87702 | 35118 ft | 452 kts | 101° |
| 2026-05-07 19:19 | 56.22347 | 2.98864 | 35120 ft | 452 kts | 101° |
| 2026-05-07 19:20 | 56.21303 | 3.10022 | 35125 ft | 452 kts | 102° |
| 2026-05-07 19:20 | 56.20244 | 3.21165 | 35124 ft | 452 kts | 102° |
| 2026-05-07 19:21 | 56.19188 | 3.32231 | 35122 ft | 452 kts | 102° |
| 2026-05-07 19:21 | 56.18117 | 3.43364 | 35128 ft | 451 kts | 102° |
| 2026-05-07 19:22 | 56.16834 | 3.54337 | 35131 ft | 450 kts | 107° |
| 2026-05-07 19:22 | 56.15193 | 3.65185 | 35134 ft | 450 kts | 107° |
| 2026-05-07 19:23 | 56.13535 | 3.76017 | 35129 ft | 450 kts | 107° |
| 2026-05-07 19:23 | 56.11876 | 3.86784 | 35143 ft | 450 kts | 107° |
| 2026-05-07 19:24 | 56.10210 | 3.97633 | 35150 ft | 450 kts | 107° |
| 2026-05-07 19:24 | 56.08535 | 4.08451 | 35154 ft | 449 kts | 107° |
| 2026-05-07 19:25 | 56.06866 | 4.19157 | 35156 ft | 449 kts | 107° |
| 2026-05-07 19:25 | 56.05170 | 4.29936 | 35147 ft | 449 kts | 107° |
| 2026-05-07 19:26 | 56.03459 | 4.40701 | 35155 ft | 449 kts | 107° |
| 2026-05-07 19:26 | 56.01761 | 4.51379 | 35156 ft | 449 kts | 107° |
| 2026-05-07 19:27 | 56.00044 | 4.62103 | 35155 ft | 449 kts | 107° |
| 2026-05-07 19:27 | 55.98318 | 4.72853 | 35155 ft | 449 kts | 107° |
| 2026-05-07 19:28 | 55.96580 | 4.83578 | 35149 ft | 449 kts | 107° |
| 2026-05-07 19:28 | 55.94832 | 4.94264 | 35155 ft | 449 kts | 108° |
| 2026-05-07 19:29 | 55.92960 | 5.04872 | 35165 ft | 448 kts | 110° |
| 2026-05-07 19:29 | 55.90754 | 5.15186 | 35161 ft | 448 kts | 113° |
| 2026-05-07 19:30 | 55.88416 | 5.25493 | 35161 ft | 448 kts | 113° |
| 2026-05-07 19:30 | 55.86126 | 5.35820 | 35159 ft | 448 kts | 112° |
| 2026-05-07 19:31 | 55.83875 | 5.46186 | 35161 ft | 448 kts | 112° |
| 2026-05-07 19:31 | 55.81632 | 5.56466 | 35164 ft | 448 kts | 112° |
| 2026-05-07 19:32 | 55.79344 | 5.66852 | 35164 ft | 448 kts | 112° |
| 2026-05-07 19:32 | 55.77073 | 5.77081 | 35164 ft | 448 kts | 112° |
| 2026-05-07 19:33 | 55.74775 | 5.87399 | 35169 ft | 448 kts | 112° |
| 2026-05-07 19:33 | 55.72474 | 5.97691 | 35169 ft | 448 kts | 112° |
| 2026-05-07 19:34 | 55.70169 | 6.07904 | 35168 ft | 448 kts | 112° |
| 2026-05-07 19:34 | 55.67843 | 6.18161 | 35168 ft | 448 kts | 112° |
| 2026-05-07 19:35 | 55.65514 | 6.28414 | 35170 ft | 448 kts | 112° |
| 2026-05-07 19:35 | 55.63175 | 6.38665 | 35168 ft | 448 kts | 112° |
| 2026-05-07 19:36 | 55.60844 | 6.48832 | 35170 ft | 448 kts | 112° |
| 2026-05-07 19:36 | 55.58494 | 6.59034 | 35171 ft | 448 kts | 112° |
| 2026-05-07 19:37 | 55.56145 | 6.69193 | 35170 ft | 448 kts | 112° |
| 2026-05-07 19:37 | 55.53777 | 6.79383 | 35168 ft | 448 kts | 112° |
| 2026-05-07 19:38 | 55.51394 | 6.89558 | 35172 ft | 447 kts | 112° |
| 2026-05-07 19:38 | 55.49012 | 6.99654 | 35172 ft | 447 kts | 112° |
| 2026-05-07 19:39 | 55.46613 | 7.09815 | 35173 ft | 447 kts | 112° |
| 2026-05-07 19:39 | 55.44231 | 7.19879 | 35172 ft | 447 kts | 112° |
| 2026-05-07 19:40 | 55.41824 | 7.29988 | 35172 ft | 447 kts | 112° |
| 2026-05-07 19:40 | 55.39420 | 7.40039 | 35170 ft | 447 kts | 113° |
| 2026-05-07 19:41 | 55.36991 | 7.50093 | 35173 ft | 446 kts | 113° |
| 2026-05-07 19:41 | 55.34560 | 7.60148 | 35170 ft | 446 kts | 113° |
| 2026-05-07 19:42 | 55.32136 | 7.70189 | 35171 ft | 446 kts | 113° |
| 2026-05-07 19:42 | 55.29694 | 7.80221 | 35171 ft | 446 kts | 113° |
| 2026-05-07 19:43 | 55.27244 | 7.90216 | 35171 ft | 445 kts | 113° |
| 2026-05-07 19:43 | 55.24798 | 8.00124 | 35171 ft | 445 kts | 113° |
| 2026-05-07 19:44 | 55.22328 | 8.10105 | 35164 ft | 445 kts | 113° |
| 2026-05-07 19:44 | 55.19855 | 8.20073 | 35164 ft | 445 kts | 113° |
| 2026-05-07 19:45 | 55.17390 | 8.29967 | 35165 ft | 445 kts | 113° |
| 2026-05-07 19:45 | 55.14905 | 8.39887 | 35162 ft | 445 kts | 113° |
| 2026-05-07 19:46 | 55.12398 | 8.49813 | 35158 ft | 445 kts | 113° |
| 2026-05-07 19:46 | 55.09917 | 8.59627 | 35158 ft | 445 kts | 113° |
| 2026-05-07 19:47 | 55.06992 | 8.69132 | 35156 ft | 445 kts | 126° |
| 2026-05-07 19:47 | 55.03339 | 8.77867 | 35156 ft | 445 kts | 125° |
| 2026-05-07 19:48 | 54.99714 | 8.86546 | 35160 ft | 445 kts | 125° |
| 2026-05-07 19:48 | 54.96060 | 8.95264 | 35161 ft | 445 kts | 125° |
| 2026-05-07 19:49 | 54.92395 | 9.03980 | 35159 ft | 445 kts | 125° |
| 2026-05-07 19:49 | 54.88776 | 9.12528 | 35159 ft | 445 kts | 126° |
| 2026-05-07 19:50 | 54.85110 | 9.21190 | 35152 ft | 444 kts | 125° |
| 2026-05-07 19:50 | 54.81516 | 9.29850 | 35154 ft | 444 kts | 124° |
| 2026-05-07 19:51 | 54.77929 | 9.38577 | 35154 ft | 444 kts | 124° |
| 2026-05-07 19:51 | 54.74316 | 9.47302 | 35155 ft | 444 kts | 124° |
| 2026-05-07 19:52 | 54.70716 | 9.55929 | 35151 ft | 444 kts | 125° |
| 2026-05-07 19:52 | 54.67700 | 9.63123 | 35155 ft | 444 kts | 124° |
| 2026-05-07 19:53 | 54.63467 | 9.73195 | 35156 ft | 444 kts | 125° |
| 2026-05-07 19:53 | 54.59829 | 9.81820 | 35159 ft | 444 kts | 125° |
| 2026-05-07 19:54 | 54.56805 | 9.88975 | 35170 ft | 443 kts | 125° |
| 2026-05-07 19:54 | 54.53164 | 9.97559 | 35174 ft | 443 kts | 125° |
| 2026-05-07 19:55 | 54.49624 | 10.05866 | 35173 ft | 443 kts | 125° |
| 2026-05-07 19:55 | 54.45989 | 10.14376 | 35179 ft | 443 kts | 125° |
| 2026-05-07 19:56 | 54.42333 | 10.22902 | 35175 ft | 443 kts | 125° |
| 2026-05-07 19:56 | 54.38657 | 10.31465 | 35177 ft | 443 kts | 125° |
| 2026-05-07 19:57 | 54.35005 | 10.39933 | 35167 ft | 444 kts | 125° |
| 2026-05-07 19:57 | 54.31313 | 10.48462 | 35164 ft | 444 kts | 126° |
| 2026-05-07 19:58 | 54.27631 | 10.56912 | 35153 ft | 445 kts | 126° |
| 2026-05-07 19:58 | 54.23914 | 10.65428 | 35145 ft | 445 kts | 126° |
| 2026-05-07 19:59 | 54.20220 | 10.73868 | 35139 ft | 446 kts | 126° |
| 2026-05-07 19:59 | 54.16495 | 10.82364 | 35134 ft | 447 kts | 126° |
| 2026-05-07 20:00 | 54.12771 | 10.90810 | 35136 ft | 447 kts | 126° |
| 2026-05-07 20:00 | 54.09020 | 10.99295 | 35131 ft | 447 kts | 126° |
| 2026-05-07 20:01 | 54.05265 | 11.07763 | 35135 ft | 448 kts | 126° |
| 2026-05-07 20:01 | 54.01496 | 11.16230 | 35139 ft | 448 kts | 127° |
| 2026-05-07 20:02 | 53.97738 | 11.24644 | 35130 ft | 449 kts | 127° |
| 2026-05-07 20:02 | 53.93940 | 11.33110 | 35130 ft | 449 kts | 127° |
| 2026-05-07 20:03 | 53.90138 | 11.41568 | 35126 ft | 450 kts | 127° |
| 2026-05-07 20:03 | 53.86347 | 11.49969 | 35127 ft | 450 kts | 127° |
| 2026-05-07 20:04 | 53.82527 | 11.58402 | 35125 ft | 451 kts | 127° |
| 2026-05-07 20:04 | 53.78697 | 11.66843 | 35128 ft | 451 kts | 127° |
| 2026-05-07 20:05 | 53.74893 | 11.75206 | 35124 ft | 452 kts | 127° |
| 2026-05-07 20:05 | 53.71037 | 11.83658 | 35127 ft | 452 kts | 127° |
| 2026-05-07 20:06 | 53.67198 | 11.92024 | 35123 ft | 453 kts | 128° |
| 2026-05-07 20:06 | 53.63329 | 12.00426 | 35129 ft | 453 kts | 128° |
| 2026-05-07 20:07 | 53.59449 | 12.08830 | 35127 ft | 453 kts | 128° |
| 2026-05-07 20:07 | 53.55589 | 12.17152 | 35126 ft | 454 kts | 128° |
| 2026-05-07 20:08 | 53.51683 | 12.25540 | 35126 ft | 454 kts | 128° |
| 2026-05-07 20:08 | 53.47805 | 12.33859 | 35125 ft | 454 kts | 128° |
| 2026-05-07 20:09 | 53.43889 | 12.42213 | 35125 ft | 455 kts | 129° |
| 2026-05-07 20:10 | 53.38008 | 12.54733 | 35121 ft | 455 kts | 129° |
| 2026-05-07 20:10 | 53.34101 | 12.63023 | 35120 ft | 455 kts | 129° |
| 2026-05-07 20:11 | 53.30162 | 12.71338 | 35125 ft | 456 kts | 129° |
| 2026-05-07 20:11 | 53.26210 | 12.79650 | 35123 ft | 456 kts | 129° |
| 2026-05-07 20:12 | 53.22273 | 12.87899 | 35124 ft | 456 kts | 129° |
| 2026-05-07 20:12 | 53.18308 | 12.96180 | 35126 ft | 456 kts | 129° |
| 2026-05-07 20:13 | 53.14331 | 13.04466 | 35126 ft | 456 kts | 129° |
| 2026-05-07 20:13 | 53.10380 | 13.12680 | 35125 ft | 456 kts | 129° |
| 2026-05-07 20:14 | 53.06421 | 13.20892 | 35122 ft | 457 kts | 129° |
| 2026-05-07 20:14 | 53.02444 | 13.29130 | 35121 ft | 457 kts | 129° |
| 2026-05-07 20:15 | 52.98442 | 13.37363 | 35120 ft | 457 kts | 130° |
| 2026-05-07 20:15 | 52.94461 | 13.45506 | 35123 ft | 456 kts | 130° |
| 2026-05-07 20:16 | 52.90450 | 13.53696 | 35121 ft | 456 kts | 130° |
| 2026-05-07 20:16 | 52.86437 | 13.61864 | 35120 ft | 456 kts | 130° |
| 2026-05-07 20:17 | 52.82447 | 13.69973 | 35121 ft | 456 kts | 130° |
| 2026-05-07 20:17 | 52.78420 | 13.78123 | 35115 ft | 456 kts | 130° |
| 2026-05-07 20:18 | 52.74417 | 13.86201 | 35113 ft | 457 kts | 130° |
| 2026-05-07 20:18 | 52.70375 | 13.94325 | 35112 ft | 457 kts | 130° |
| 2026-05-07 20:19 | 52.66335 | 14.02425 | 35103 ft | 457 kts | 130° |
| 2026-05-07 20:19 | 52.62305 | 14.10476 | 35104 ft | 457 kts | 130° |
| 2026-05-07 20:20 | 52.58246 | 14.18555 | 35103 ft | 457 kts | 130° |
| 2026-05-07 20:20 | 52.54186 | 14.26607 | 35099 ft | 457 kts | 131° |
| 2026-05-07 20:21 | 52.50141 | 14.34622 | 35099 ft | 457 kts | 131° |
| 2026-05-07 20:21 | 52.46070 | 14.42662 | 35099 ft | 457 kts | 131° |
| 2026-05-07 20:22 | 52.42011 | 14.50634 | 35101 ft | 457 kts | 131° |
| 2026-05-07 20:22 | 52.38527 | 14.59336 | 35099 ft | 459 kts | 115° |
| 2026-05-07 20:23 | 52.36824 | 14.69428 | 35094 ft | 461 kts | 101° |
| 2026-05-07 20:23 | 52.35723 | 14.79736 | 35091 ft | 462 kts | 101° |
| 2026-05-07 20:24 | 52.34588 | 14.90093 | 35087 ft | 462 kts | 102° |
| 2026-05-07 20:24 | 52.33442 | 15.00451 | 35088 ft | 462 kts | 102° |
| 2026-05-07 20:25 | 52.32282 | 15.10814 | 35086 ft | 462 kts | 102° |
| 2026-05-07 20:25 | 52.31132 | 15.21098 | 35090 ft | 462 kts | 102° |
| 2026-05-07 20:26 | 52.29972 | 15.31450 | 35092 ft | 462 kts | 102° |
| 2026-05-07 20:26 | 52.28808 | 15.41738 | 35096 ft | 462 kts | 102° |
| 2026-05-07 20:27 | 52.27613 | 15.52088 | 35103 ft | 462 kts | 103° |
| 2026-05-07 20:27 | 52.26421 | 15.62405 | 35105 ft | 462 kts | 103° |
| 2026-05-07 20:28 | 52.25233 | 15.72667 | 35107 ft | 462 kts | 103° |
| 2026-05-07 20:28 | 52.24026 | 15.82994 | 35112 ft | 462 kts | 103° |
| 2026-05-07 20:29 | 52.22807 | 15.93300 | 35110 ft | 462 kts | 103° |
| 2026-05-07 20:29 | 52.21577 | 16.03607 | 35108 ft | 462 kts | 104° |
| 2026-05-07 20:30 | 52.20345 | 16.13841 | 35102 ft | 462 kts | 104° |
| 2026-05-07 20:30 | 52.19083 | 16.24134 | 35097 ft | 462 kts | 104° |
| 2026-05-07 20:31 | 52.17829 | 16.34383 | 35094 ft | 462 kts | 104° |
| 2026-05-07 20:31 | 52.16570 | 16.44659 | 35083 ft | 462 kts | 104° |
| 2026-05-07 20:32 | 52.15293 | 16.54949 | 35085 ft | 462 kts | 104° |
| 2026-05-07 20:32 | 52.14006 | 16.65225 | 35081 ft | 463 kts | 105° |
| 2026-05-07 20:33 | 52.13449 | 16.75645 | 35083 ft | 469 kts | 89° |
| 2026-05-07 20:33 | 52.14433 | 16.86227 | 35083 ft | 472 kts | 83° |
| 2026-05-07 20:34 | 52.15484 | 16.96710 | 35079 ft | 472 kts | 84° |
| 2026-05-07 20:34 | 52.16523 | 17.07286 | 35081 ft | 472 kts | 84° |
| 2026-05-07 20:35 | 52.17383 | 17.16072 | 35083 ft | 473 kts | 84° |
| 2026-05-07 20:35 | 52.18413 | 17.26669 | 35081 ft | 473 kts | 84° |
| 2026-05-07 20:36 | 52.19438 | 17.37286 | 35084 ft | 473 kts | 85° |
| 2026-05-07 20:36 | 52.20444 | 17.47895 | 35078 ft | 473 kts | 85° |
| 2026-05-07 20:37 | 52.21432 | 17.58453 | 35081 ft | 473 kts | 85° |
| 2026-05-07 20:37 | 52.22414 | 17.69076 | 35075 ft | 474 kts | 86° |
| 2026-05-07 20:38 | 52.23386 | 17.79720 | 35074 ft | 474 kts | 86° |
| 2026-05-07 20:38 | 52.24357 | 17.90397 | 35076 ft | 474 kts | 86° |
| 2026-05-07 20:39 | 52.25317 | 18.01051 | 35077 ft | 474 kts | 86° |
| 2026-05-07 20:39 | 52.26268 | 18.11658 | 35074 ft | 475 kts | 86° |
| 2026-05-07 20:40 | 52.27218 | 18.22353 | 35075 ft | 475 kts | 87° |
| 2026-05-07 20:40 | 52.28156 | 18.33045 | 35074 ft | 475 kts | 87° |
| 2026-05-07 20:40 | 52.28621 | 18.38405 | 34892 ft | 475 kts | 87° |
| 2026-05-07 20:41 | 52.29085 | 18.43760 | 34407 ft | 477 kts | 88° |
| 2026-05-07 20:41 | 52.29541 | 18.49116 | 33385 ft | 485 kts | 89° |
| 2026-05-07 20:41 | 52.30002 | 18.54592 | 32562 ft | 486 kts | 89° |
| 2026-05-07 20:41 | 52.30461 | 18.60055 | 31628 ft | 489 kts | 89° |
| 2026-05-07 20:42 | 52.30924 | 18.65555 | 31012 ft | 485 kts | 89° |
| 2026-05-07 20:42 | 52.31386 | 18.71017 | 30225 ft | 485 kts | 89° |
| 2026-05-07 20:42 | 52.31848 | 18.76486 | 29285 ft | 485 kts | 89° |
| 2026-05-07 20:42 | 52.32305 | 18.81912 | 28855 ft | 478 kts | 89° |
| 2026-05-07 20:43 | 52.32733 | 18.87033 | 28589 ft | 478 kts | 89° |
| 2026-05-07 20:43 | 52.33175 | 18.92424 | 28301 ft | 478 kts | 89° |
| 2026-05-07 20:43 | 52.33591 | 18.97838 | 28031 ft | 478 kts | 90° |
| 2026-05-07 20:43 | 52.33922 | 19.03193 | 27759 ft | 478 kts | 91° |
| 2026-05-07 20:44 | 52.34194 | 19.08616 | 27489 ft | 479 kts | 92° |
| 2026-05-07 20:44 | 52.34434 | 19.14077 | 27221 ft | 479 kts | 92° |
| 2026-05-07 20:44 | 52.34668 | 19.19509 | 26958 ft | 481 kts | 92° |
| 2026-05-07 20:44 | 52.34916 | 19.24977 | 26697 ft | 482 kts | 91° |
| 2026-05-07 20:45 | 52.35179 | 19.30402 | 26438 ft | 483 kts | 91° |
| 2026-05-07 20:45 | 52.35453 | 19.35882 | 26175 ft | 484 kts | 91° |
| 2026-05-07 20:45 | 52.35730 | 19.41373 | 25922 ft | 485 kts | 91° |
| 2026-05-07 20:45 | 52.36007 | 19.46871 | 25675 ft | 485 kts | 91° |
| 2026-05-07 20:46 | 52.36281 | 19.52401 | 25422 ft | 486 kts | 91° |
| 2026-05-07 20:46 | 52.36548 | 19.57910 | 25172 ft | 486 kts | 91° |
| 2026-05-07 20:46 | 52.36808 | 19.63449 | 24927 ft | 486 kts | 91° |
| 2026-05-07 20:46 | 52.37059 | 19.68850 | 24669 ft | 471 kts | 91° |
| 2026-05-07 20:47 | 52.37340 | 19.74033 | 24421 ft | 444 kts | 88° |
| 2026-05-07 20:47 | 52.37949 | 19.78892 | 24181 ft | 427 kts | 79° |
| 2026-05-07 20:47 | 52.38917 | 19.83388 | 23942 ft | 411 kts | 73° |
| 2026-05-07 20:47 | 52.39968 | 19.87636 | 23701 ft | 393 kts | 73° |
| 2026-05-07 20:48 | 52.40982 | 19.91769 | 23445 ft | 388 kts | 74° |
| 2026-05-07 20:48 | 52.41967 | 19.95821 | 23175 ft | 387 kts | 74° |
| 2026-05-07 20:48 | 52.42956 | 19.99900 | 22892 ft | 381 kts | 74° |
| 2026-05-07 20:48 | 52.43925 | 20.03889 | 22613 ft | 373 kts | 73° |
| 2026-05-07 20:49 | 52.44884 | 20.07838 | 22342 ft | 371 kts | 73° |
| 2026-05-07 20:49 | 52.45832 | 20.11761 | 22071 ft | 370 kts | 73° |
| 2026-05-07 20:49 | 52.46778 | 20.15678 | 21816 ft | 369 kts | 73° |
| 2026-05-07 20:49 | 52.47710 | 20.19538 | 21496 ft | 366 kts | 73° |
| 2026-05-07 20:50 | 52.48473 | 20.23460 | 20902 ft | 357 kts | 81° |
| 2026-05-07 20:50 | 52.48915 | 20.27436 | 20237 ft | 351 kts | 88° |
| 2026-05-07 20:50 | 52.49060 | 20.31400 | 19593 ft | 345 kts | 95° |
| 2026-05-07 20:50 | 52.48936 | 20.35307 | 18956 ft | 341 kts | 101° |
| 2026-05-07 20:51 | 52.48546 | 20.39134 | 18325 ft | 337 kts | 107° |
| 2026-05-07 20:51 | 52.47897 | 20.42810 | 17642 ft | 332 kts | 114° |
| 2026-05-07 20:51 | 52.47015 | 20.46279 | 17002 ft | 327 kts | 120° |
| 2026-05-07 20:51 | 52.45946 | 20.49500 | 16385 ft | 322 kts | 124° |
| 2026-05-07 20:52 | 52.44833 | 20.52680 | 15779 ft | 320 kts | 123° |
| 2026-05-07 20:52 | 52.43733 | 20.55833 | 15197 ft | 317 kts | 123° |
| 2026-05-07 20:52 | 52.42640 | 20.58967 | 14630 ft | 315 kts | 123° |
| 2026-05-07 20:52 | 52.41553 | 20.62068 | 14062 ft | 312 kts | 123° |
| 2026-05-07 20:53 | 52.40487 | 20.65107 | 13489 ft | 310 kts | 123° |
| 2026-05-07 20:53 | 52.39404 | 20.68189 | 12865 ft | 307 kts | 123° |
| 2026-05-07 20:53 | 52.38354 | 20.71177 | 12294 ft | 304 kts | 123° |
| 2026-05-07 20:53 | 52.37303 | 20.74153 | 12067 ft | 303 kts | 122° |
| 2026-05-07 20:54 | 52.36249 | 20.77136 | 12049 ft | 304 kts | 123° |
| 2026-05-07 20:54 | 52.35186 | 20.80138 | 11938 ft | 305 kts | 123° |
| 2026-05-07 20:54 | 52.34132 | 20.83119 | 11675 ft | 296 kts | 122° |
| 2026-05-07 20:54 | 52.33123 | 20.85976 | 11417 ft | 283 kts | 122° |
| 2026-05-07 20:55 | 52.32168 | 20.88671 | 11149 ft | 272 kts | 123° |
| 2026-05-07 20:55 | 52.31223 | 20.91329 | 10919 ft | 268 kts | 122° |
| 2026-05-07 20:55 | 52.30287 | 20.93958 | 10669 ft | 265 kts | 122° |
| 2026-05-07 20:55 | 52.29335 | 20.96527 | 10425 ft | 263 kts | 126° |
| 2026-05-07 20:56 | 52.28261 | 20.98918 | 10170 ft | 259 kts | 131° |
| 2026-05-07 20:56 | 52.27073 | 21.01117 | 9735 ft | 256 kts | 136° |
| 2026-05-07 20:56 | 52.25791 | 21.03086 | 9280 ft | 255 kts | 142° |
| 2026-05-07 20:56 | 52.24403 | 21.04871 | 8832 ft | 253 kts | 147° |
| 2026-05-07 20:57 | 52.22935 | 21.06442 | 8383 ft | 250 kts | 152° |
| 2026-05-07 20:57 | 52.21411 | 21.07793 | 7941 ft | 248 kts | 154° |
| 2026-05-07 20:57 | 52.19883 | 21.09107 | 7509 ft | 247 kts | 154° |
| 2026-05-07 20:57 | 52.18362 | 21.10416 | 7085 ft | 246 kts | 154° |
| 2026-05-07 20:58 | 52.16867 | 21.11705 | 6661 ft | 245 kts | 154° |
| 2026-05-07 20:58 | 52.15357 | 21.13005 | 6222 ft | 244 kts | 154° |
| 2026-05-07 20:58 | 52.13860 | 21.14304 | 5783 ft | 242 kts | 153° |
| 2026-05-07 20:58 | 52.12380 | 21.15604 | 5369 ft | 240 kts | 153° |
| 2026-05-07 20:59 | 52.10934 | 21.16875 | 5037 ft | 238 kts | 153° |
| 2026-05-07 20:59 | 52.09467 | 21.18162 | 5001 ft | 239 kts | 153° |
| 2026-05-07 20:59 | 52.08004 | 21.19444 | 5003 ft | 236 kts | 153° |
| 2026-05-07 20:59 | 52.06589 | 21.20683 | 4995 ft | 225 kts | 153° |
| 2026-05-07 21:00 | 52.05226 | 21.21873 | 5001 ft | 220 kts | 153° |
| 2026-05-07 21:00 | 52.03885 | 21.23041 | 5036 ft | 218 kts | 153° |
| 2026-05-07 21:00 | 52.02594 | 21.24163 | 5005 ft | 210 kts | 153° |
| 2026-05-07 21:00 | 52.01311 | 21.25280 | 5000 ft | 208 kts | 153° |
| 2026-05-07 21:01 | 52.00053 | 21.26375 | 5000 ft | 200 kts | 153° |
| 2026-05-07 21:01 | 51.98877 | 21.27392 | 4995 ft | 182 kts | 154° |
| 2026-05-07 21:01 | 51.97816 | 21.28308 | 5001 ft | 167 kts | 154° |
| 2026-05-07 21:01 | 51.96819 | 21.29167 | 5018 ft | 158 kts | 154° |
| 2026-05-07 21:02 | 51.95850 | 21.29999 | 5007 ft | 157 kts | 154° |
| 2026-05-07 21:02 | 51.94885 | 21.30825 | 5007 ft | 157 kts | 154° |
| 2026-05-07 21:02 | 51.93935 | 21.31639 | 5005 ft | 156 kts | 154° |
| 2026-05-07 21:02 | 51.92971 | 21.32465 | 5002 ft | 156 kts | 154° |
| 2026-05-07 21:03 | 51.92007 | 21.33292 | 4995 ft | 157 kts | 154° |
| 2026-05-07 21:03 | 51.91041 | 21.34120 | 4996 ft | 156 kts | 155° |
| 2026-05-07 21:03 | 51.90036 | 21.34767 | 4995 ft | 155 kts | 167° |
| 2026-05-07 21:03 | 51.88977 | 21.35019 | 4999 ft | 154 kts | 181° |
| 2026-05-07 21:04 | 51.87915 | 21.34861 | 5003 ft | 152 kts | 195° |
| 2026-05-07 21:04 | 51.86929 | 21.34333 | 4998 ft | 150 kts | 208° |
| 2026-05-07 21:04 | 51.86038 | 21.33457 | 4990 ft | 149 kts | 220° |
| 2026-05-07 21:04 | 51.85300 | 21.32293 | 4999 ft | 148 kts | 233° |
| 2026-05-07 21:05 | 51.84740 | 21.30910 | 4991 ft | 147 kts | 245° |
| 2026-05-07 21:05 | 51.84378 | 21.29373 | 4995 ft | 146 kts | 257° |
| 2026-05-07 21:05 | 51.84231 | 21.27771 | 4999 ft | 145 kts | 268° |
| 2026-05-07 21:05 | 51.84301 | 21.26149 | 5000 ft | 145 kts | 282° |
| 2026-05-07 21:06 | 51.84726 | 21.24676 | 5001 ft | 146 kts | 307° |
| 2026-05-07 21:06 | 51.85510 | 21.23631 | 4998 ft | 148 kts | 330° |
| 2026-05-07 21:06 | 51.86425 | 21.22846 | 5000 ft | 149 kts | 330° |
| 2026-05-07 21:06 | 51.87343 | 21.22059 | 5006 ft | 149 kts | 329° |
| 2026-05-07 21:07 | 51.88246 | 21.21282 | 5004 ft | 149 kts | 329° |
| 2026-05-07 21:07 | 51.89158 | 21.20497 | 5003 ft | 148 kts | 329° |
| 2026-05-07 21:07 | 51.90073 | 21.19709 | 5005 ft | 148 kts | 329° |
| 2026-05-07 21:07 | 51.90985 | 21.18923 | 5001 ft | 148 kts | 329° |
| 2026-05-07 21:08 | 51.91901 | 21.18132 | 5008 ft | 149 kts | 329° |
| 2026-05-07 21:08 | 51.92816 | 21.17343 | 5011 ft | 149 kts | 329° |
| 2026-05-07 21:08 | 51.93715 | 21.16567 | 5007 ft | 148 kts | 329° |
| 2026-05-07 21:08 | 51.94631 | 21.15776 | 4951 ft | 149 kts | 329° |
| 2026-05-07 21:09 | 51.95547 | 21.14984 | 4805 ft | 148 kts | 329° |
| 2026-05-07 21:09 | 51.96459 | 21.14196 | 4630 ft | 148 kts | 330° |
| 2026-05-07 21:09 | 51.97365 | 21.13413 | 4437 ft | 147 kts | 330° |
| 2026-05-07 21:09 | 51.98268 | 21.12631 | 4243 ft | 147 kts | 330° |
| 2026-05-07 21:10 | 51.99159 | 21.11860 | 4042 ft | 146 kts | 330° |
| 2026-05-07 21:10 | 52.00057 | 21.11083 | 3849 ft | 146 kts | 330° |
| 2026-05-07 21:10 | 52.00951 | 21.10308 | 3651 ft | 145 kts | 330° |
| 2026-05-07 21:10 | 52.01845 | 21.09533 | 3463 ft | 145 kts | 330° |
| 2026-05-07 21:11 | 52.02733 | 21.08763 | 3265 ft | 145 kts | 330° |
| 2026-05-07 21:11 | 52.03623 | 21.07990 | 3066 ft | 145 kts | 331° |
| 2026-05-07 21:11 | 52.05392 | 21.06454 | 2674 ft | 144 kts | 332° |
| 2026-05-07 21:12 | 52.06273 | 21.05689 | 2482 ft | 143 kts | 333° |
| 2026-05-07 21:12 | 52.07139 | 21.04937 | 2285 ft | 142 kts | 333° |
| 2026-05-07 21:12 | 52.08013 | 21.04177 | 2100 ft | 142 kts | 333° |
| 2026-05-07 21:12 | 52.08885 | 21.03418 | 1903 ft | 142 kts | 334° |
| 2026-05-07 21:13 | 52.09756 | 21.02660 | 1710 ft | 141 kts | 334° |
| 2026-05-07 21:13 | 52.10607 | 21.01919 | 1516 ft | 140 kts | 334° |
| 2026-05-07 21:13 | 52.11473 | 21.01165 | 1322 ft | 141 kts | 334° |
| 2026-05-07 21:13 | 52.12331 | 21.00417 | 1114 ft | 140 kts | 334° |
| 2026-05-07 21:14 | 52.13187 | 20.99666 | 915 ft | 139 kts | 333° |
| 2026-05-07 21:14 | 52.14039 | 20.98924 | 698 ft | 139 kts | 333° |
| 2026-05-07 21:14 | 52.14880 | 20.98190 | 509 ft | 138 kts | 333° |
| 2026-05-07 21:14 | 52.15614 | 20.97548 | 358 ft | 0 kts | 332° |